createdAt,value
2022-11-27T00:01:34.829Z,100.00
2022-11-27T00:04:02.788Z,100.00
2022-11-27T00:06:31.700Z,100.00
2022-11-27T00:09:01.977Z,100.00
2022-11-27T00:11:31.491Z,100.00
2022-11-27T00:14:01.290Z,100.00
2022-11-27T00:16:29.642Z,100.00
2022-11-27T00:18:57.840Z,100.00
2022-11-27T00:21:27.916Z,100.00
2022-11-27T00:23:57.092Z,100.00
2022-11-27T00:26:25.388Z,100.00
2022-11-27T00:28:55.272Z,100.00
2022-11-27T00:31:28.680Z,100.00
2022-11-27T00:33:57.280Z,100.00
2022-11-27T00:36:25.417Z,100.00
2022-11-27T00:38:53.792Z,100.00
2022-11-27T00:41:23.814Z,100.00
2022-11-27T00:43:51.983Z,100.00
2022-11-27T00:46:25.358Z,100.00
2022-11-27T00:48:58.199Z,100.00
2022-11-27T00:51:27.673Z,100.00
2022-11-27T00:53:56.335Z,100.00
2022-11-27T00:56:26.280Z,100.00
2022-11-27T00:58:54.933Z,100.00
2022-11-27T01:01:25.141Z,100.00
2022-11-27T01:03:53.299Z,100.00
2022-11-27T01:06:22.719Z,100.00
2022-11-27T01:08:51.000Z,100.00
2022-11-27T01:11:21.243Z,100.00
2022-11-27T01:13:49.017Z,100.00
2022-11-27T01:16:19.199Z,100.00
2022-11-27T01:18:48.519Z,100.00
2022-11-27T01:21:18.885Z,100.00
2022-11-27T01:23:48.721Z,100.00
2022-11-27T01:26:17.584Z,100.00
2022-11-27T01:28:45.828Z,100.00
2022-11-27T01:31:16.923Z,100.00
2022-11-27T01:33:45.540Z,100.00
2022-11-27T01:36:14.980Z,100.00
2022-11-27T01:38:43.378Z,100.00
2022-11-27T01:41:16.120Z,100.00
2022-11-27T01:43:47.824Z,100.00
2022-11-27T01:46:36.164Z,100.00
2022-11-27T01:49:24.575Z,100.00
2022-11-27T01:51:57.423Z,100.00
2022-11-27T01:54:28.302Z,100.00
2022-11-27T01:57:01.547Z,100.00
2022-11-27T01:59:30.053Z,100.00
2022-11-27T02:01:57.896Z,100.00
2022-11-27T02:04:25.733Z,100.00
2022-11-27T02:06:54.960Z,100.00
2022-11-27T02:09:22.752Z,100.00
2022-11-27T02:11:57.809Z,100.00
2022-11-27T02:14:33.194Z,100.00
2022-11-27T02:17:10.144Z,100.00
2022-11-27T02:20:06.153Z,100.00
2022-11-27T02:22:49.018Z,100.00
2022-11-27T02:25:28.734Z,100.00
2022-11-27T02:28:18.835Z,100.00
2022-11-27T02:30:52.917Z,100.00
2022-11-27T02:33:22.540Z,100.00
2022-11-27T02:35:55.332Z,100.00
2022-11-27T02:38:29.461Z,100.00
2022-11-27T02:41:01.659Z,100.00
2022-11-27T02:43:34.177Z,100.00
2022-11-27T02:46:06.197Z,100.00
2022-11-27T02:48:38.774Z,100.00
2022-11-27T02:51:07.935Z,100.00
2022-11-27T02:53:40.538Z,100.00
2022-11-27T02:56:12.308Z,100.00
2022-11-27T02:58:42.112Z,100.00
2022-11-27T03:01:13.464Z,100.00
2022-11-27T03:03:46.467Z,100.00
2022-11-27T03:06:21.370Z,100.00
2022-11-27T03:08:54.874Z,100.00
2022-11-27T03:11:23.005Z,100.00
2022-11-27T03:13:54.680Z,100.00
2022-11-27T03:16:31.871Z,100.00
2022-11-27T03:19:09.814Z,100.00
2022-11-27T03:21:40.887Z,100.00
2022-11-27T03:24:10.317Z,100.00
2022-11-27T03:26:39.742Z,100.00
2022-11-27T03:29:11.724Z,100.00
2022-11-27T03:31:41.762Z,100.00
2022-11-27T03:34:09.684Z,100.00
2022-11-27T03:36:37.863Z,100.00
2022-11-27T03:39:06.007Z,100.00
2022-11-27T03:41:43.395Z,100.00
2022-11-27T03:44:18.411Z,100.00
2022-11-27T03:47:00.782Z,100.00
2022-11-27T03:49:38.336Z,100.00
2022-11-27T03:52:15.739Z,100.00
2022-11-27T03:54:54.587Z,100.00
2022-11-27T03:57:27.732Z,100.00
2022-11-27T04:00:00.009Z,100.00
2022-11-27T04:02:32.493Z,100.00
2022-11-27T04:05:00.249Z,100.00
2022-11-27T04:07:28.107Z,100.00
2022-11-27T04:09:55.954Z,100.00
2022-11-27T04:12:24.038Z,100.00
2022-11-27T04:14:52.118Z,100.00
2022-11-27T04:17:19.893Z,100.00
2022-11-27T04:19:49.113Z,100.00
2022-11-27T04:22:17.104Z,100.00
2022-11-27T04:24:44.907Z,100.00
2022-11-27T04:27:12.725Z,100.00
2022-11-27T04:29:40.492Z,100.00
2022-11-27T04:32:08.354Z,100.00
2022-11-27T04:34:36.271Z,100.00
2022-11-27T04:37:05.442Z,100.00
2022-11-27T04:39:33.161Z,100.00
2022-11-27T04:42:00.991Z,100.00
2022-11-27T04:44:28.746Z,100.00
2022-11-27T04:46:56.603Z,100.00
2022-11-27T04:49:24.481Z,100.00
2022-11-27T04:51:52.254Z,100.00
2022-11-27T04:54:21.576Z,100.00
2022-11-27T04:56:49.618Z,100.00
2022-11-27T04:59:17.621Z,100.00
2022-11-27T05:01:45.408Z,100.00
2022-11-27T05:04:13.248Z,100.00
2022-11-27T05:06:41.428Z,100.00
2022-11-27T05:09:09.373Z,100.00
2022-11-27T05:11:38.511Z,100.00
2022-11-27T05:14:18.216Z,100.00
2022-11-27T05:16:48.288Z,100.00
2022-11-27T05:19:17.136Z,100.00
2022-11-27T05:21:45.736Z,100.00
2022-11-27T05:24:14.594Z,100.00
2022-11-27T05:26:44.524Z,100.00
2022-11-27T05:29:13.097Z,100.00
2022-11-27T05:31:41.150Z,100.00
2022-11-27T05:34:09.623Z,100.00
2022-11-27T05:36:38.380Z,100.00
2022-11-27T05:39:07.831Z,100.00
2022-11-27T05:41:36.389Z,100.00
2022-11-27T05:44:06.422Z,100.00
2022-11-27T05:46:34.460Z,100.00
2022-11-27T05:49:02.332Z,100.00
2022-11-27T05:51:30.110Z,100.00
2022-11-27T05:53:58.467Z,100.00
2022-11-27T05:56:26.621Z,100.00
2022-11-27T05:58:54.662Z,100.00
2022-11-27T06:01:23.789Z,100.00
2022-11-27T06:03:51.713Z,100.00
2022-11-27T06:06:21.163Z,100.00
2022-11-27T06:08:49.257Z,100.00
2022-11-27T06:11:19.347Z,100.00
2022-11-27T06:13:48.738Z,100.00
2022-11-27T06:16:18.824Z,100.00
2022-11-27T06:18:50.368Z,100.00
2022-11-27T06:21:18.534Z,100.00
2022-11-27T06:23:46.821Z,100.00
2022-11-27T06:26:18.134Z,100.00
2022-11-27T06:28:46.620Z,100.00
2022-11-27T06:31:18.272Z,100.00
2022-11-27T06:33:48.103Z,100.00
2022-11-27T06:36:16.438Z,100.00
2022-11-27T06:38:44.828Z,100.00
2022-11-27T06:41:14.863Z,100.00
2022-11-27T06:43:42.715Z,100.00
2022-11-27T06:46:14.040Z,100.00
2022-11-27T06:48:42.169Z,100.00
2022-11-27T06:51:14.187Z,100.00
2022-11-27T06:53:43.049Z,100.00
2022-11-27T06:56:12.894Z,100.00
2022-11-27T06:58:41.131Z,100.00
2022-11-27T07:01:11.167Z,100.00
2022-11-27T07:03:39.131Z,100.00
2022-11-27T07:06:09.617Z,100.00
2022-11-27T07:08:39.441Z,100.00
2022-11-27T07:11:09.115Z,100.00
2022-11-27T07:13:37.144Z,100.00
2022-11-27T07:16:08.028Z,100.00
2022-11-27T07:18:37.051Z,100.00
2022-11-27T07:21:05.201Z,100.00
2022-11-27T07:23:32.979Z,100.00
2022-11-27T07:26:06.474Z,100.00
2022-11-27T07:28:34.376Z,100.00
2022-11-27T07:31:02.953Z,100.00
2022-11-27T07:33:30.872Z,100.00
2022-11-27T07:36:00.855Z,100.00
2022-11-27T07:38:28.694Z,100.00
2022-11-27T07:40:56.552Z,100.00
2022-11-27T07:43:25.657Z,100.00
2022-11-27T07:45:53.516Z,100.00
2022-11-27T07:48:21.375Z,100.00
2022-11-27T07:50:49.236Z,100.00
2022-11-27T07:53:17.183Z,100.00
2022-11-27T07:55:45.019Z,99.90
2022-11-27T07:58:12.815Z,100.00
2022-11-27T08:00:42.142Z,100.00
2022-11-27T08:03:11.111Z,99.15
2022-11-27T08:05:39.036Z,98.92
2022-11-27T08:08:07.041Z,98.84
2022-11-27T08:10:36.914Z,99.19
2022-11-27T08:13:05.184Z,98.93
2022-11-27T08:15:33.166Z,98.18
2022-11-27T08:18:02.404Z,97.76
2022-11-27T08:20:30.843Z,96.83
2022-11-27T08:23:02.751Z,97.18
2022-11-27T08:25:31.374Z,97.22
2022-11-27T08:27:59.269Z,97.16
2022-11-27T08:30:27.115Z,96.73
2022-11-27T08:32:54.944Z,95.65
2022-11-27T08:35:24.120Z,95.25
2022-11-27T08:37:52.014Z,95.90
2022-11-27T08:40:19.799Z,94.94
2022-11-27T08:42:47.583Z,94.58
2022-11-27T08:45:15.465Z,94.32
2022-11-27T08:47:43.464Z,93.96
2022-11-27T08:50:11.610Z,93.27
2022-11-27T08:52:40.841Z,93.90
2022-11-27T08:55:09.892Z,93.69
2022-11-27T08:57:37.895Z,92.81
2022-11-27T09:00:07.593Z,92.43
2022-11-27T09:02:35.751Z,92.74
2022-11-27T09:05:06.336Z,91.39
2022-11-27T09:07:34.201Z,92.41
2022-11-27T09:10:03.633Z,91.35
2022-11-27T09:12:31.447Z,90.86
2022-11-27T09:14:59.233Z,91.26
2022-11-27T09:17:27.011Z,90.66
2022-11-27T09:19:54.817Z,89.57
2022-11-27T09:22:22.615Z,89.44
2022-11-27T09:24:50.653Z,89.51
2022-11-27T09:27:20.028Z,89.93
2022-11-27T09:29:47.983Z,89.79
2022-11-27T09:32:15.890Z,89.99
2022-11-27T09:34:44.242Z,90.72
2022-11-27T09:37:12.580Z,89.74
2022-11-27T09:39:40.375Z,89.57
2022-11-27T09:42:09.617Z,89.98
2022-11-27T09:44:45.302Z,89.36
2022-11-27T09:47:18.969Z,89.28
2022-11-27T09:49:51.016Z,88.72
2022-11-27T09:52:24.676Z,88.47
2022-11-27T09:54:58.808Z,88.01
2022-11-27T09:57:30.244Z,86.99
2022-11-27T10:00:05.001Z,86.28
2022-11-27T10:02:34.883Z,85.25
2022-11-27T10:05:16.880Z,84.50
2022-11-27T10:08:07.155Z,83.62
2022-11-27T10:10:46.601Z,82.83
2022-11-27T10:13:36.504Z,82.09
2022-11-27T10:16:13.761Z,80.13
2022-11-27T10:18:46.541Z,80.04
2022-11-27T10:21:19.540Z,79.14
2022-11-27T10:23:55.928Z,79.57
2022-11-27T10:26:29.088Z,78.82
2022-11-27T10:29:04.635Z,78.67
2022-11-27T10:31:39.158Z,77.51
2022-11-27T10:34:21.235Z,76.96
2022-11-27T10:36:51.596Z,78.20
2022-11-27T10:39:29.459Z,77.22
2022-11-27T10:42:02.861Z,77.52
2022-11-27T10:44:34.324Z,77.58
2022-11-27T10:47:06.621Z,76.78
2022-11-27T10:49:36.620Z,76.87
2022-11-27T10:52:04.532Z,76.50
2022-11-27T10:54:37.995Z,76.88
2022-11-27T10:57:25.195Z,77.04
2022-11-27T11:00:05.083Z,76.25
2022-11-27T11:02:37.821Z,76.59
2022-11-27T11:05:41.033Z,76.37
2022-11-27T11:08:18.183Z,76.04
2022-11-27T11:10:52.966Z,75.98
2022-11-27T11:13:22.643Z,74.47
2022-11-27T11:15:59.258Z,74.66
2022-11-27T11:18:30.291Z,75.25
2022-11-27T11:21:01.111Z,74.84
2022-11-27T11:23:34.905Z,75.26
2022-11-27T11:26:07.512Z,75.54
2022-11-27T11:28:39.638Z,74.49
2022-11-27T11:31:11.378Z,74.67
2022-11-27T11:33:50.793Z,73.73
2022-11-27T11:36:18.695Z,73.35
2022-11-27T11:38:48.743Z,74.10
2022-11-27T11:41:19.187Z,73.94
2022-11-27T11:43:58.247Z,73.78
2022-11-27T11:46:28.648Z,74.63
2022-11-27T11:49:00.851Z,74.28
2022-11-27T11:51:43.779Z,75.45
2022-11-27T11:54:22.558Z,75.16
2022-11-27T11:56:53.282Z,75.45
2022-11-27T11:59:32.892Z,74.34
2022-11-27T12:02:31.590Z,75.23
2022-11-27T12:05:16.362Z,75.83
2022-11-27T12:07:58.696Z,75.59
2022-11-27T12:10:32.365Z,75.78
2022-11-27T12:13:09.613Z,75.54
2022-11-27T12:15:43.238Z,75.45
2022-11-27T12:18:20.056Z,74.98
2022-11-27T12:21:15.010Z,75.52
2022-11-27T12:23:59.945Z,75.42
2022-11-27T12:26:39.717Z,75.38
2022-11-27T12:29:33.007Z,75.11
2022-11-27T12:32:12.390Z,74.88
2022-11-27T12:34:53.959Z,74.86
2022-11-27T12:37:36.878Z,74.84
2022-11-27T12:40:27.456Z,74.52
2022-11-27T12:43:04.408Z,74.37
2022-11-27T12:45:37.745Z,73.81
2022-11-27T12:48:13.282Z,74.40
2022-11-27T12:50:44.993Z,73.83
2022-11-27T12:53:24.467Z,73.79
2022-11-27T12:56:01.865Z,73.57
2022-11-27T12:58:33.856Z,73.19
2022-11-27T13:01:07.533Z,73.89
2022-11-27T13:03:43.357Z,73.74
2022-11-27T13:06:15.018Z,73.55
2022-11-27T13:08:54.506Z,73.00
2022-11-27T13:11:29.386Z,73.19
2022-11-27T13:14:01.656Z,72.97
2022-11-27T13:16:34.565Z,72.56
2022-11-27T13:19:09.312Z,72.58
2022-11-27T13:21:40.010Z,72.24
2022-11-27T13:24:12.984Z,72.38
2022-11-27T13:26:44.869Z,72.65
2022-11-27T13:29:20.518Z,71.61
2022-11-27T13:31:52.930Z,71.58
2022-11-27T13:34:24.404Z,71.63
2022-11-27T13:36:58.482Z,71.54
2022-11-27T13:39:30.597Z,70.81
2022-11-27T13:42:07.898Z,70.54
2022-11-27T13:44:39.109Z,71.37
2022-11-27T13:47:12.951Z,70.63
2022-11-27T13:49:41.888Z,70.85
2022-11-27T13:52:13.587Z,71.06
2022-11-27T13:54:53.588Z,71.33
2022-11-27T13:57:22.006Z,71.14
2022-11-27T13:59:58.390Z,70.86
2022-11-27T14:02:26.872Z,71.26
2022-11-27T14:04:56.600Z,71.32
2022-11-27T14:07:35.709Z,71.61
2022-11-27T14:10:11.521Z,72.22
2022-11-27T14:12:39.194Z,72.28
2022-11-27T14:15:10.209Z,72.72
2022-11-27T14:17:42.180Z,73.60
2022-11-27T14:20:24.822Z,73.13
2022-11-27T14:23:11.237Z,73.03
2022-11-27T14:25:42.466Z,72.95
2022-11-27T14:28:15.936Z,73.88
2022-11-27T14:30:48.082Z,73.29
2022-11-27T14:33:21.278Z,73.22
2022-11-27T14:35:50.383Z,73.33
2022-11-27T14:38:18.269Z,73.98
2022-11-27T14:40:48.387Z,74.19
2022-11-27T14:43:18.046Z,74.06
2022-11-27T14:45:48.150Z,74.28
2022-11-27T14:48:22.745Z,74.50
2022-11-27T14:50:52.107Z,75.26
2022-11-27T14:53:22.071Z,75.58
2022-11-27T14:55:54.318Z,76.34
2022-11-27T14:58:25.783Z,76.82
2022-11-27T15:00:56.077Z,77.66
2022-11-27T15:03:26.191Z,77.63
2022-11-27T15:05:58.276Z,78.42
2022-11-27T15:08:27.429Z,79.06
2022-11-27T15:10:58.693Z,78.90
2022-11-27T15:13:28.701Z,79.54
2022-11-27T15:16:04.467Z,79.29
2022-11-27T15:18:33.485Z,78.60
2022-11-27T15:21:02.541Z,79.21
2022-11-27T15:23:33.990Z,79.46
2022-11-27T15:26:14.961Z,79.30
2022-11-27T15:28:51.611Z,80.32
2022-11-27T15:31:28.558Z,81.04
2022-11-27T15:33:58.508Z,82.01
2022-11-27T15:36:26.529Z,84.14
2022-11-27T15:39:06.843Z,83.48
2022-11-27T15:41:40.823Z,84.05
2022-11-27T15:44:11.243Z,84.43
2022-11-27T15:46:39.061Z,84.99
2022-11-27T15:49:11.638Z,85.10
2022-11-27T15:51:39.443Z,84.32
2022-11-27T15:54:07.379Z,84.51
2022-11-27T15:56:36.618Z,85.50
2022-11-27T15:59:04.789Z,85.44
2022-11-27T16:01:32.773Z,86.04
2022-11-27T16:04:00.675Z,85.48
2022-11-27T16:06:28.493Z,86.84
2022-11-27T16:08:56.713Z,87.21
2022-11-27T16:11:25.241Z,87.94
2022-11-27T16:13:54.402Z,87.67
2022-11-27T16:16:22.675Z,88.64
2022-11-27T16:18:50.854Z,89.26
2022-11-27T16:21:29.136Z,89.96
2022-11-27T16:23:59.258Z,90.39
2022-11-27T16:26:27.934Z,90.86
2022-11-27T16:28:57.531Z,90.56
2022-11-27T16:31:26.865Z,91.99
2022-11-27T16:33:55.076Z,92.47
2022-11-27T16:36:25.640Z,93.13
2022-11-27T16:38:54.582Z,93.87
2022-11-27T16:41:25.660Z,94.12
2022-11-27T16:43:57.751Z,93.11
2022-11-27T16:46:28.762Z,93.76
2022-11-27T16:48:58.772Z,95.12
2022-11-27T16:51:29.085Z,93.50
2022-11-27T16:54:00.546Z,93.70
2022-11-27T16:56:30.812Z,96.23
2022-11-27T16:59:03.438Z,95.68
2022-11-27T17:01:36.059Z,95.31
2022-11-27T17:04:04.943Z,96.55
2022-11-27T17:06:37.794Z,96.94
2022-11-27T17:09:07.753Z,97.79
2022-11-27T17:11:37.594Z,97.18
2022-11-27T17:14:09.454Z,98.64
2022-11-27T17:16:40.357Z,99.63
2022-11-27T17:19:12.995Z,98.73
2022-11-27T17:21:42.288Z,99.15
2022-11-27T17:24:15.225Z,99.80
2022-11-27T17:26:46.105Z,99.02
2022-11-27T17:29:18.419Z,99.09
2022-11-27T17:31:46.691Z,98.30
2022-11-27T17:34:16.293Z,98.96
2022-11-27T17:36:46.090Z,100.00
2022-11-27T17:39:16.273Z,100.00
2022-11-27T17:41:45.711Z,100.00
2022-11-27T17:44:15.266Z,100.00
2022-11-27T17:46:45.376Z,100.00
2022-11-27T17:49:14.126Z,100.00
2022-11-27T17:51:42.282Z,100.00
2022-11-27T17:54:12.275Z,100.00
2022-11-27T17:56:40.339Z,100.00
2022-11-27T17:59:10.349Z,100.00
2022-11-27T18:01:40.588Z,100.00
2022-11-27T18:04:10.381Z,100.00
2022-11-27T18:06:38.738Z,100.00
2022-11-27T18:09:09.832Z,100.00
2022-11-27T18:11:37.609Z,100.00
2022-11-27T18:14:05.528Z,100.00
2022-11-27T18:16:38.613Z,100.00
2022-11-27T18:19:11.006Z,100.00
2022-11-27T18:21:40.097Z,100.00
2022-11-27T18:24:25.132Z,100.00
2022-11-27T18:27:08.299Z,100.00
2022-11-27T18:29:37.427Z,100.00
2022-11-27T18:32:05.773Z,100.00
2022-11-27T18:34:35.730Z,100.00
2022-11-27T18:37:03.844Z,99.89
2022-11-27T18:39:32.441Z,100.00
2022-11-27T18:42:00.462Z,100.00
2022-11-27T18:44:29.082Z,99.24
2022-11-27T18:46:57.632Z,99.42
2022-11-27T18:49:26.118Z,99.61
2022-11-27T18:51:56.338Z,98.29
2022-11-27T18:54:25.140Z,97.22
2022-11-27T18:56:53.172Z,97.59
2022-11-27T18:59:21.268Z,98.55
2022-11-27T19:01:49.563Z,96.88
2022-11-27T19:04:17.609Z,97.31
2022-11-27T19:06:47.621Z,97.53
2022-11-27T19:09:17.202Z,97.49
2022-11-27T19:11:45.194Z,97.18
2022-11-27T19:14:13.903Z,97.59
2022-11-27T19:16:46.304Z,96.94
2022-11-27T19:19:52.908Z,97.09
2022-11-27T19:22:07.685Z,96.81
2022-11-27T19:24:38.586Z,96.37
2022-11-27T19:27:07.265Z,96.98
2022-11-27T19:29:35.864Z,97.20
2022-11-27T19:32:03.728Z,96.31
2022-11-27T19:34:31.777Z,96.41
2022-11-27T19:36:59.688Z,96.21
2022-11-27T19:39:28.700Z,95.84
2022-11-27T19:41:58.845Z,95.46
2022-11-27T19:44:26.797Z,95.36
2022-11-27T19:46:54.647Z,95.67
2022-11-27T19:49:23.710Z,94.98
2022-11-27T19:51:51.806Z,95.52
2022-11-27T19:54:21.737Z,95.86
2022-11-27T19:56:51.506Z,95.26
2022-11-27T19:59:25.519Z,94.84
2022-11-27T20:01:54.586Z,95.15
2022-11-27T20:04:27.470Z,94.42
2022-11-27T20:06:55.265Z,94.74
2022-11-27T20:09:24.525Z,94.28
2022-11-27T20:11:52.307Z,94.68
2022-11-27T20:14:21.683Z,95.09
2022-11-27T20:16:50.046Z,94.72
2022-11-27T20:19:18.969Z,93.96
2022-11-27T20:21:47.008Z,94.55
2022-11-27T20:24:15.065Z,94.30
2022-11-27T20:26:43.888Z,93.69
2022-11-27T20:29:12.421Z,93.62
2022-11-27T20:31:44.604Z,93.56
2022-11-27T20:34:18.172Z,91.92
2022-11-27T20:36:46.513Z,92.46
2022-11-27T20:39:20.610Z,92.11
2022-11-27T20:41:51.145Z,92.38
2022-11-27T20:44:19.088Z,91.66
2022-11-27T20:46:48.377Z,91.93
2022-11-27T20:49:17.975Z,90.95
2022-11-27T20:51:48.839Z,90.95
2022-11-27T20:54:20.374Z,91.17
2022-11-27T20:56:51.211Z,90.54
2022-11-27T20:59:19.715Z,90.06
2022-11-27T21:01:50.208Z,90.23
2022-11-27T21:04:22.161Z,90.23
2022-11-27T21:06:50.227Z,90.49
2022-11-27T21:09:20.183Z,90.69
2022-11-27T21:11:48.411Z,90.59
2022-11-27T21:14:17.675Z,90.10
2022-11-27T21:16:48.421Z,89.87
2022-11-27T21:19:20.039Z,90.11
2022-11-27T21:21:48.959Z,90.53
2022-11-27T21:24:17.391Z,90.28
2022-11-27T21:26:45.491Z,90.96
2022-11-27T21:29:16.115Z,90.81
2022-11-27T21:31:47.242Z,90.17
2022-11-27T21:34:16.593Z,91.69
2022-11-27T21:36:46.600Z,92.50
2022-11-27T21:39:20.231Z,91.92
2022-11-27T21:41:49.856Z,92.27
2022-11-27T21:44:20.007Z,93.36
2022-11-27T21:46:48.751Z,93.30
2022-11-27T21:49:19.618Z,94.28
2022-11-27T21:51:52.110Z,93.33
2022-11-27T21:54:20.707Z,93.01
2022-11-27T21:56:52.544Z,94.64
2022-11-27T21:59:20.592Z,93.48
2022-11-27T22:01:48.943Z,94.97
2022-11-27T22:04:16.953Z,95.65
2022-11-27T22:06:45.443Z,95.14
2022-11-27T22:09:15.961Z,94.81
2022-11-27T22:11:45.118Z,95.31
2022-11-27T22:14:15.293Z,95.47
2022-11-27T22:16:46.215Z,93.99
2022-11-27T22:19:16.408Z,93.74
2022-11-27T22:21:45.414Z,93.41
2022-11-27T22:24:19.517Z,94.24
2022-11-27T22:26:51.602Z,93.07
2022-11-27T22:29:19.551Z,93.87
2022-11-27T22:31:47.750Z,92.69
2022-11-27T22:34:16.861Z,92.40
2022-11-27T22:36:45.912Z,92.34
2022-11-27T22:39:15.809Z,92.74
2022-11-27T22:41:44.924Z,93.00
2022-11-27T22:44:16.425Z,92.36
2022-11-27T22:46:44.781Z,92.44
2022-11-27T22:49:14.554Z,93.45
2022-11-27T22:51:42.747Z,92.57
2022-11-27T22:54:12.895Z,92.63
2022-11-27T22:56:42.894Z,92.17
2022-11-27T22:59:31.598Z,92.09
2022-11-27T23:02:00.014Z,91.98
2022-11-27T23:04:28.273Z,91.32
2022-11-27T23:06:56.078Z,91.73
2022-11-27T23:09:24.621Z,91.77
2022-11-27T23:11:54.369Z,93.32
2022-11-27T23:14:22.081Z,92.30
2022-11-27T23:16:49.963Z,93.40
2022-11-27T23:19:17.798Z,93.02
2022-11-27T23:21:45.770Z,92.41
2022-11-27T23:24:15.448Z,91.99
2022-11-27T23:26:43.529Z,92.53
2022-11-27T23:29:13.381Z,91.46
2022-11-27T23:31:41.275Z,91.10
2022-11-27T23:34:13.475Z,90.90
2022-11-27T23:36:41.675Z,89.81
2022-11-27T23:39:12.108Z,89.83
2022-11-27T23:41:40.732Z,90.69
2022-11-27T23:44:08.838Z,90.76
2022-11-27T23:46:38.077Z,92.31
2022-11-27T23:49:05.937Z,93.87
2022-11-27T23:51:34.594Z,94.30
2022-11-27T23:54:02.848Z,95.73
2022-11-27T23:56:32.434Z,97.58
2022-11-27T23:59:00.918Z,99.94
